sensor_id;sensor_type;location;lat;lon;timestamp;P1;durP1;ratioP1;P2;durP2;ratioP2
43933;SDS011;59081;42.706;23.306;2022-10-22T00:00:50;36.35;;;21.35;;
43933;SDS011;59081;42.706;23.306;2022-10-22T00:03:16;31.27;;;21.35;;
43933;SDS011;59081;42.706;23.306;2022-10-22T00:05:42;39.10;;;21.65;;
43933;SDS011;59081;42.706;23.306;2022-10-22T00:10:43;33.83;;;19.30;;
43933;SDS011;59081;42.706;23.306;2022-10-22T00:13:10;32.65;;;18.42;;
43933;SDS011;59081;42.706;23.306;2022-10-22T00:15:36;31.50;;;18.08;;
43933;SDS011;59081;42.706;23.306;2022-10-22T00:18:02;33.35;;;18.30;;
43933;SDS011;59081;42.706;23.306;2022-10-22T00:20:27;39.92;;;18.60;;
43933;SDS011;59081;42.706;23.306;2022-10-22T00:22:53;30.08;;;19.42;;
43933;SDS011;59081;42.706;23.306;2022-10-22T00:25:19;35.95;;;19.05;;
43933;SDS011;59081;42.706;23.306;2022-10-22T00:27:45;34.22;;;18.55;;
43933;SDS011;59081;42.706;23.306;2022-10-22T00:30:10;32.60;;;18.83;;
43933;SDS011;59081;42.706;23.306;2022-10-22T00:32:36;33.15;;;19.30;;
43933;SDS011;59081;42.706;23.306;2022-10-22T00:35:02;33.28;;;19.67;;
43933;SDS011;59081;42.706;23.306;2022-10-22T00:37:28;49.38;;;19.50;;
43933;SDS011;59081;42.706;23.306;2022-10-22T00:39:54;31.33;;;18.75;;
43933;SDS011;59081;42.706;23.306;2022-10-22T00:42:21;34.90;;;19.23;;
43933;SDS011;59081;42.706;23.306;2022-10-22T00:45:31;29.50;;;17.27;;
43933;SDS011;59081;42.706;23.306;2022-10-22T00:47:48;30.40;;;17.92;;
43933;SDS011;59081;42.706;23.306;2022-10-22T00:50:21;28.50;;;17.52;;
43933;SDS011;59081;42.706;23.306;2022-10-22T00:52:55;34.65;;;17.30;;
43933;SDS011;59081;42.706;23.306;2022-10-22T00:55:23;34.55;;;18.00;;
43933;SDS011;59081;42.706;23.306;2022-10-22T00:57:50;31.23;;;17.52;;
43933;SDS011;59081;42.706;23.306;2022-10-22T01:00:18;30.35;;;17.65;;
43933;SDS011;59081;42.706;23.306;2022-10-22T01:02:44;29.45;;;17.38;;
43933;SDS011;59081;42.706;23.306;2022-10-22T01:05:10;32.08;;;15.80;;
43933;SDS011;59081;42.706;23.306;2022-10-22T01:07:38;35.70;;;18.48;;
43933;SDS011;59081;42.706;23.306;2022-10-22T01:29:17;29.48;;;17.60;;
43933;SDS011;59081;42.706;23.306;2022-10-22T01:31:47;30.30;;;17.65;;
43933;SDS011;59081;42.706;23.306;2022-10-22T01:34:19;33.75;;;18.33;;
43933;SDS011;59081;42.706;23.306;2022-10-22T01:36:46;31.58;;;18.02;;
43933;SDS011;59081;42.706;23.306;2022-10-22T01:39:15;31.90;;;17.35;;
43933;SDS011;59081;42.706;23.306;2022-10-22T01:41:43;35.83;;;19.10;;
43933;SDS011;59081;42.706;23.306;2022-10-22T01:44:22;33.75;;;18.88;;
43933;SDS011;59081;42.706;23.306;2022-10-22T01:47:05;28.73;;;17.63;;
43933;SDS011;59081;42.706;23.306;2022-10-22T01:49:55;31.73;;;18.67;;
43933;SDS011;59081;42.706;23.306;2022-10-22T01:52:46;30.63;;;17.50;;
43933;SDS011;59081;42.706;23.306;2022-10-22T01:55:43;28.73;;;18.08;;
43933;SDS011;59081;42.706;23.306;2022-10-22T01:58:21;30.38;;;18.83;;
43933;SDS011;59081;42.706;23.306;2022-10-22T02:00:57;29.65;;;17.70;;
43933;SDS011;59081;42.706;23.306;2022-10-22T02:03:31;30.33;;;17.95;;
43933;SDS011;59081;42.706;23.306;2022-10-22T02:06:07;32.63;;;17.08;;
43933;SDS011;59081;42.706;23.306;2022-10-22T02:08:38;31.92;;;17.75;;
43933;SDS011;59081;42.706;23.306;2022-10-22T02:11:05;32.85;;;18.65;;
43933;SDS011;59081;42.706;23.306;2022-10-22T02:13:50;31.38;;;17.45;;
43933;SDS011;59081;42.706;23.306;2022-10-22T02:16:35;31.05;;;18.23;;
43933;SDS011;59081;42.706;23.306;2022-10-22T02:19:09;31.88;;;19.92;;
43933;SDS011;59081;42.706;23.306;2022-10-22T02:21:54;30.63;;;18.70;;
43933;SDS011;59081;42.706;23.306;2022-10-22T02:24:19;31.80;;;18.45;;
43933;SDS011;59081;42.706;23.306;2022-10-22T02:29:29;28.67;;;17.08;;
43933;SDS011;59081;42.706;23.306;2022-10-22T02:32:04;34.67;;;19.17;;
43933;SDS011;59081;42.706;23.306;2022-10-22T02:34:32;36.30;;;20.48;;
43933;SDS011;59081;42.706;23.306;2022-10-22T02:36:59;35.42;;;20.30;;
43933;SDS011;59081;42.706;23.306;2022-10-22T02:39:28;32.55;;;19.35;;
43933;SDS011;59081;42.706;23.306;2022-10-22T02:41:55;34.33;;;19.85;;
43933;SDS011;59081;42.706;23.306;2022-10-22T02:44:22;34.90;;;18.77;;
43933;SDS011;59081;42.706;23.306;2022-10-22T02:46:48;32.95;;;18.25;;
43933;SDS011;59081;42.706;23.306;2022-10-22T02:49:15;32.15;;;19.08;;
43933;SDS011;59081;42.706;23.306;2022-10-22T02:51:40;24.52;;;16.67;;
43933;SDS011;59081;42.706;23.306;2022-10-22T02:54:06;29.33;;;18.45;;
43933;SDS011;59081;42.706;23.306;2022-10-22T02:56:32;34.28;;;20.50;;
43933;SDS011;59081;42.706;23.306;2022-10-22T02:58:58;30.73;;;19.52;;
43933;SDS011;59081;42.706;23.306;2022-10-22T03:01:23;28.20;;;18.33;;
43933;SDS011;59081;42.706;23.306;2022-10-22T03:03:49;31.13;;;19.75;;
43933;SDS011;59081;42.706;23.306;2022-10-22T03:06:15;35.45;;;18.83;;
43933;SDS011;59081;42.706;23.306;2022-10-22T03:08:41;28.75;;;18.17;;
43933;SDS011;59081;42.706;23.306;2022-10-22T03:11:07;33.38;;;18.63;;
43933;SDS011;59081;42.706;23.306;2022-10-22T03:13:32;31.83;;;18.48;;
43933;SDS011;59081;42.706;23.306;2022-10-22T03:15:58;33.38;;;18.63;;
43933;SDS011;59081;42.706;23.306;2022-10-22T03:18:23;35.45;;;18.55;;
43933;SDS011;59081;42.706;23.306;2022-10-22T03:20:49;33.10;;;18.85;;
43933;SDS011;59081;42.706;23.306;2022-10-22T03:23:15;27.42;;;17.60;;
43933;SDS011;59081;42.706;23.306;2022-10-22T03:25:43;34.42;;;18.30;;
43933;SDS011;59081;42.706;23.306;2022-10-22T03:28:12;33.75;;;17.67;;
43933;SDS011;59081;42.706;23.306;2022-10-22T03:30:40;33.90;;;20.02;;
43933;SDS011;59081;42.706;23.306;2022-10-22T03:33:06;32.72;;;19.10;;
43933;SDS011;59081;42.706;23.306;2022-10-22T03:35:32;29.50;;;18.33;;
43933;SDS011;59081;42.706;23.306;2022-10-22T03:38:04;35.15;;;19.15;;
43933;SDS011;59081;42.706;23.306;2022-10-22T03:40:30;36.92;;;20.55;;
43933;SDS011;59081;42.706;23.306;2022-10-22T03:42:56;31.60;;;19.27;;
43933;SDS011;59081;42.706;23.306;2022-10-22T03:45:22;32.60;;;19.27;;
43933;SDS011;59081;42.706;23.306;2022-10-22T03:47:48;33.00;;;20.23;;
43933;SDS011;59081;42.706;23.306;2022-10-22T03:50:14;31.85;;;18.83;;
43933;SDS011;59081;42.706;23.306;2022-10-22T03:52:39;31.65;;;19.73;;
43933;SDS011;59081;42.706;23.306;2022-10-22T03:55:05;32.95;;;19.38;;
43933;SDS011;59081;42.706;23.306;2022-10-22T03:57:31;33.78;;;19.40;;
43933;SDS011;59081;42.706;23.306;2022-10-22T03:59:57;31.98;;;18.67;;
43933;SDS011;59081;42.706;23.306;2022-10-22T04:02:23;36.67;;;19.33;;
43933;SDS011;59081;42.706;23.306;2022-10-22T04:04:48;35.83;;;20.20;;
43933;SDS011;59081;42.706;23.306;2022-10-22T04:07:14;33.42;;;18.80;;
43933;SDS011;59081;42.706;23.306;2022-10-22T04:09:39;33.83;;;18.63;;
43933;SDS011;59081;42.706;23.306;2022-10-22T04:12:05;31.63;;;19.05;;
43933;SDS011;59081;42.706;23.306;2022-10-22T04:14:32;35.80;;;20.45;;
43933;SDS011;59081;42.706;23.306;2022-10-22T04:16:57;41.55;;;19.20;;
43933;SDS011;59081;42.706;23.306;2022-10-22T04:19:23;33.00;;;19.83;;
43933;SDS011;59081;42.706;23.306;2022-10-22T04:21:51;37.08;;;19.65;;
43933;SDS011;59081;42.706;23.306;2022-10-22T04:24:17;38.97;;;19.15;;
43933;SDS011;59081;42.706;23.306;2022-10-22T04:26:42;32.33;;;20.70;;
43933;SDS011;59081;42.706;23.306;2022-10-22T04:29:08;34.17;;;20.88;;
43933;SDS011;59081;42.706;23.306;2022-10-22T04:31:34;39.10;;;20.65;;
43933;SDS011;59081;42.706;23.306;2022-10-22T04:33:59;33.60;;;20.13;;
43933;SDS011;59081;42.706;23.306;2022-10-22T04:36:25;37.90;;;20.17;;
43933;SDS011;59081;42.706;23.306;2022-10-22T04:38:53;36.95;;;20.40;;
43933;SDS011;59081;42.706;23.306;2022-10-22T04:41:22;31.73;;;18.83;;
43933;SDS011;59081;42.706;23.306;2022-10-22T04:43:49;34.42;;;19.70;;
43933;SDS011;59081;42.706;23.306;2022-10-22T04:46:16;34.20;;;18.88;;
43933;SDS011;59081;42.706;23.306;2022-10-22T04:48:42;31.85;;;18.42;;
43933;SDS011;59081;42.706;23.306;2022-10-22T04:51:10;31.45;;;17.63;;
43933;SDS011;59081;42.706;23.306;2022-10-22T04:53:37;30.58;;;17.30;;
43933;SDS011;59081;42.706;23.306;2022-10-22T04:56:09;25.65;;;17.02;;
43933;SDS011;59081;42.706;23.306;2022-10-22T04:58:44;31.88;;;16.50;;
43933;SDS011;59081;42.706;23.306;2022-10-22T05:01:21;31.25;;;16.83;;
43933;SDS011;59081;42.706;23.306;2022-10-22T05:03:48;34.72;;;17.00;;
43933;SDS011;59081;42.706;23.306;2022-10-22T05:06:16;30.15;;;16.85;;
43933;SDS011;59081;42.706;23.306;2022-10-22T05:08:41;27.23;;;15.52;;
43933;SDS011;59081;42.706;23.306;2022-10-22T05:11:15;27.00;;;16.13;;
43933;SDS011;59081;42.706;23.306;2022-10-22T05:13:42;29.92;;;16.35;;
43933;SDS011;59081;42.706;23.306;2022-10-22T05:16:08;29.42;;;16.85;;
43933;SDS011;59081;42.706;23.306;2022-10-22T05:18:36;29.98;;;16.65;;
43933;SDS011;59081;42.706;23.306;2022-10-22T05:21:03;24.98;;;13.95;;
43933;SDS011;59081;42.706;23.306;2022-10-22T05:23:32;25.48;;;14.00;;
43933;SDS011;59081;42.706;23.306;2022-10-22T05:26:00;28.02;;;15.88;;
43933;SDS011;59081;42.706;23.306;2022-10-22T05:28:27;30.75;;;16.77;;
43933;SDS011;59081;42.706;23.306;2022-10-22T05:30:56;27.10;;;16.95;;
43933;SDS011;59081;42.706;23.306;2022-10-22T05:33:26;25.80;;;17.08;;
43933;SDS011;59081;42.706;23.306;2022-10-22T05:35:56;21.92;;;15.20;;
43933;SDS011;59081;42.706;23.306;2022-10-22T05:38:26;32.72;;;15.18;;
43933;SDS011;59081;42.706;23.306;2022-10-22T05:41:02;28.17;;;17.67;;
43933;SDS011;59081;42.706;23.306;2022-10-22T05:43:38;29.67;;;17.13;;
43933;SDS011;59081;42.706;23.306;2022-10-22T05:46:07;30.15;;;18.17;;
43933;SDS011;59081;42.706;23.306;2022-10-22T05:48:37;28.33;;;17.10;;
43933;SDS011;59081;42.706;23.306;2022-10-22T05:51:07;31.65;;;18.27;;
43933;SDS011;59081;42.706;23.306;2022-10-22T05:53:39;32.10;;;18.80;;
43933;SDS011;59081;42.706;23.306;2022-10-22T05:56:07;32.50;;;17.55;;
43933;SDS011;59081;42.706;23.306;2022-10-22T05:58:39;29.35;;;18.75;;
43933;SDS011;59081;42.706;23.306;2022-10-22T06:03:42;37.85;;;19.48;;
43933;SDS011;59081;42.706;23.306;2022-10-22T06:08:50;32.42;;;20.35;;
43933;SDS011;59081;42.706;23.306;2022-10-22T06:11:18;36.92;;;19.55;;
43933;SDS011;59081;42.706;23.306;2022-10-22T06:13:46;38.08;;;21.23;;
43933;SDS011;59081;42.706;23.306;2022-10-22T06:16:14;46.95;;;25.38;;
43933;SDS011;59081;42.706;23.306;2022-10-22T06:18:40;45.63;;;27.27;;
43933;SDS011;59081;42.706;23.306;2022-10-22T06:21:07;47.00;;;26.17;;
43933;SDS011;59081;42.706;23.306;2022-10-22T06:23:37;37.25;;;22.85;;
43933;SDS011;59081;42.706;23.306;2022-10-22T06:26:03;39.92;;;22.95;;
43933;SDS011;59081;42.706;23.306;2022-10-22T06:28:30;48.50;;;28.20;;
43933;SDS011;59081;42.706;23.306;2022-10-22T06:30:59;56.92;;;26.95;;
43933;SDS011;59081;42.706;23.306;2022-10-22T06:33:26;38.33;;;23.40;;
43933;SDS011;59081;42.706;23.306;2022-10-22T06:36:03;38.33;;;22.00;;
43933;SDS011;59081;42.706;23.306;2022-10-22T06:38:30;33.03;;;21.27;;
43933;SDS011;59081;42.706;23.306;2022-10-22T06:41:02;38.03;;;24.75;;
43933;SDS011;59081;42.706;23.306;2022-10-22T06:46:06;35.55;;;22.05;;
43933;SDS011;59081;42.706;23.306;2022-10-22T06:51:10;36.40;;;22.08;;
43933;SDS011;59081;42.706;23.306;2022-10-22T06:53:39;42.03;;;23.65;;
43933;SDS011;59081;42.706;23.306;2022-10-22T06:56:06;37.95;;;22.05;;
43933;SDS011;59081;42.706;23.306;2022-10-22T06:58:33;38.55;;;25.05;;
43933;SDS011;59081;42.706;23.306;2022-10-22T07:01:03;40.92;;;23.92;;
43933;SDS011;59081;42.706;23.306;2022-10-22T07:03:31;52.15;;;25.27;;
43933;SDS011;59081;42.706;23.306;2022-10-22T07:06:03;40.65;;;24.20;;
43933;SDS011;59081;42.706;23.306;2022-10-22T07:08:31;43.83;;;24.35;;
43933;SDS011;59081;42.706;23.306;2022-10-22T07:11:03;42.58;;;23.52;;
43933;SDS011;59081;42.706;23.306;2022-10-22T07:13:32;39.15;;;21.25;;
43933;SDS011;59081;42.706;23.306;2022-10-22T07:15:59;40.90;;;25.65;;
43933;SDS011;59081;42.706;23.306;2022-10-22T07:18:24;60.55;;;39.42;;
43933;SDS011;59081;42.706;23.306;2022-10-22T07:20:50;35.42;;;21.90;;
43933;SDS011;59081;42.706;23.306;2022-10-22T07:23:16;39.05;;;24.33;;
43933;SDS011;59081;42.706;23.306;2022-10-22T07:25:42;48.35;;;28.42;;
43933;SDS011;59081;42.706;23.306;2022-10-22T07:28:08;54.03;;;30.95;;
43933;SDS011;59081;42.706;23.306;2022-10-22T07:30:35;40.42;;;25.05;;
43933;SDS011;59081;42.706;23.306;2022-10-22T07:33:01;45.13;;;25.10;;
43933;SDS011;59081;42.706;23.306;2022-10-22T07:35:31;35.55;;;22.63;;
43933;SDS011;59081;42.706;23.306;2022-10-22T07:37:58;42.75;;;24.73;;
43933;SDS011;59081;42.706;23.306;2022-10-22T07:40:24;40.13;;;23.65;;
43933;SDS011;59081;42.706;23.306;2022-10-22T07:42:50;32.05;;;22.50;;
43933;SDS011;59081;42.706;23.306;2022-10-22T07:45:15;37.25;;;23.00;;
43933;SDS011;59081;42.706;23.306;2022-10-22T07:47:41;40.85;;;24.17;;
43933;SDS011;59081;42.706;23.306;2022-10-22T07:50:07;37.47;;;22.73;;
43933;SDS011;59081;42.706;23.306;2022-10-22T07:52:33;40.55;;;23.08;;
43933;SDS011;59081;42.706;23.306;2022-10-22T07:54:59;39.92;;;23.83;;
43933;SDS011;59081;42.706;23.306;2022-10-22T07:57:25;33.97;;;20.48;;
43933;SDS011;59081;42.706;23.306;2022-10-22T07:59:51;36.47;;;21.10;;
43933;SDS011;59081;42.706;23.306;2022-10-22T08:02:17;32.95;;;22.05;;
43933;SDS011;59081;42.706;23.306;2022-10-22T08:04:42;35.58;;;21.15;;
43933;SDS011;59081;42.706;23.306;2022-10-22T08:07:08;45.60;;;24.38;;
43933;SDS011;59081;42.706;23.306;2022-10-22T08:09:34;42.80;;;21.85;;
43933;SDS011;59081;42.706;23.306;2022-10-22T08:11:59;34.28;;;21.80;;
43933;SDS011;59081;42.706;23.306;2022-10-22T08:14:26;33.55;;;20.13;;
43933;SDS011;59081;42.706;23.306;2022-10-22T08:16:51;40.38;;;24.50;;
43933;SDS011;59081;42.706;23.306;2022-10-22T08:19:17;32.88;;;21.13;;
43933;SDS011;59081;42.706;23.306;2022-10-22T08:21:45;27.40;;;17.42;;
43933;SDS011;59081;42.706;23.306;2022-10-22T08:24:12;31.48;;;18.92;;
43933;SDS011;59081;42.706;23.306;2022-10-22T08:26:38;28.70;;;18.83;;
43933;SDS011;59081;42.706;23.306;2022-10-22T08:29:08;27.25;;;17.75;;
43933;SDS011;59081;42.706;23.306;2022-10-22T08:31:33;26.95;;;18.27;;
43933;SDS011;59081;42.706;23.306;2022-10-22T08:33:59;24.77;;;18.35;;
43933;SDS011;59081;42.706;23.306;2022-10-22T08:36:25;30.80;;;18.52;;
43933;SDS011;59081;42.706;23.306;2022-10-22T08:38:51;32.67;;;17.45;;
43933;SDS011;59081;42.706;23.306;2022-10-22T08:41:17;26.80;;;18.13;;
43933;SDS011;59081;42.706;23.306;2022-10-22T08:49:39;23.45;;;15.40;;
43933;SDS011;59081;42.706;23.306;2022-10-22T08:52:09;22.35;;;14.85;;
43933;SDS011;59081;42.706;23.306;2022-10-22T08:54:48;26.13;;;16.42;;
43933;SDS011;59081;42.706;23.306;2022-10-22T09:00:08;29.98;;;17.92;;
43933;SDS011;59081;42.706;23.306;2022-10-22T09:08:13;18.65;;;13.82;;
43933;SDS011;59081;42.706;23.306;2022-10-22T09:10:45;26.27;;;17.02;;
43933;SDS011;59081;42.706;23.306;2022-10-22T09:13:15;24.45;;;15.50;;
43933;SDS011;59081;42.706;23.306;2022-10-22T09:15:44;27.77;;;15.80;;
43933;SDS011;59081;42.706;23.306;2022-10-22T09:21:19;28.88;;;16.92;;
43933;SDS011;59081;42.706;23.306;2022-10-22T09:26:18;27.98;;;15.60;;
43933;SDS011;59081;42.706;23.306;2022-10-22T09:28:48;25.15;;;17.30;;
43933;SDS011;59081;42.706;23.306;2022-10-22T09:31:14;30.17;;;17.33;;
43933;SDS011;59081;42.706;23.306;2022-10-22T09:33:40;26.13;;;16.92;;
43933;SDS011;59081;42.706;23.306;2022-10-22T09:36:07;23.90;;;16.27;;
43933;SDS011;59081;42.706;23.306;2022-10-22T09:38:43;26.17;;;15.35;;
43933;SDS011;59081;42.706;23.306;2022-10-22T09:41:11;29.40;;;17.42;;
43933;SDS011;59081;42.706;23.306;2022-10-22T09:43:37;28.13;;;16.10;;
43933;SDS011;59081;42.706;23.306;2022-10-22T09:46:03;29.98;;;16.98;;
43933;SDS011;59081;42.706;23.306;2022-10-22T09:48:32;26.58;;;17.95;;
43933;SDS011;59081;42.706;23.306;2022-10-22T09:51:05;28.85;;;18.58;;
43933;SDS011;59081;42.706;23.306;2022-10-22T09:53:57;29.38;;;19.23;;
43933;SDS011;59081;42.706;23.306;2022-10-22T09:59:03;28.05;;;17.30;;
43933;SDS011;59081;42.706;23.306;2022-10-22T10:01:31;25.20;;;18.95;;
43933;SDS011;59081;42.706;23.306;2022-10-22T10:04:04;27.95;;;18.25;;
43933;SDS011;59081;42.706;23.306;2022-10-22T10:06:32;22.60;;;19.17;;
43933;SDS011;59081;42.706;23.306;2022-10-22T10:08:58;28.27;;;17.73;;
43933;SDS011;59081;42.706;23.306;2022-10-22T10:11:36;29.52;;;18.60;;
43933;SDS011;59081;42.706;23.306;2022-10-22T10:22:06;29.58;;;17.15;;
43933;SDS011;59081;42.706;23.306;2022-10-22T10:27:36;32.15;;;17.77;;
43933;SDS011;59081;42.706;23.306;2022-10-22T10:30:09;24.52;;;17.85;;
43933;SDS011;59081;42.706;23.306;2022-10-22T10:35:38;28.38;;;17.25;;
43933;SDS011;59081;42.706;23.306;2022-10-22T10:49:29;31.58;;;15.55;;
43933;SDS011;59081;42.706;23.306;2022-10-22T11:00:04;23.75;;;16.35;;
43933;SDS011;59081;42.706;23.306;2022-10-22T11:05:47;34.13;;;15.57;;
43933;SDS011;59081;42.706;23.306;2022-10-22T11:08:22;26.10;;;15.98;;
43933;SDS011;59081;42.706;23.306;2022-10-22T11:11:00;29.15;;;19.52;;
43933;SDS011;59081;42.706;23.306;2022-10-22T11:13:31;27.17;;;15.38;;
43933;SDS011;59081;42.706;23.306;2022-10-22T11:19:13;21.95;;;14.82;;
43933;SDS011;59081;42.706;23.306;2022-10-22T11:21:48;21.48;;;14.90;;
43933;SDS011;59081;42.706;23.306;2022-10-22T11:26:56;19.65;;;15.00;;
43933;SDS011;59081;42.706;23.306;2022-10-22T11:29:36;22.75;;;13.90;;
43933;SDS011;59081;42.706;23.306;2022-10-22T11:34:52;21.25;;;15.40;;
43933;SDS011;59081;42.706;23.306;2022-10-22T11:37:21;21.00;;;13.75;;
43933;SDS011;59081;42.706;23.306;2022-10-22T11:39:51;23.10;;;13.20;;
43933;SDS011;59081;42.706;23.306;2022-10-22T11:42:20;17.10;;;12.88;;
43933;SDS011;59081;42.706;23.306;2022-10-22T11:45:04;19.55;;;13.50;;
43933;SDS011;59081;42.706;23.306;2022-10-22T11:47:56;18.73;;;12.32;;
43933;SDS011;59081;42.706;23.306;2022-10-22T11:50:26;19.95;;;12.45;;
43933;SDS011;59081;42.706;23.306;2022-10-22T13:43:04;19.05;;;8.32;;
43933;SDS011;59081;42.706;23.306;2022-10-22T13:45:30;16.23;;;8.60;;
43933;SDS011;59081;42.706;23.306;2022-10-22T13:47:55;21.42;;;9.75;;
43933;SDS011;59081;42.706;23.306;2022-10-22T13:50:21;19.42;;;9.45;;
43933;SDS011;59081;42.706;23.306;2022-10-22T13:52:49;15.88;;;8.85;;
43933;SDS011;59081;42.706;23.306;2022-10-22T13:55:20;23.50;;;9.60;;
43933;SDS011;59081;42.706;23.306;2022-10-22T13:58:00;26.20;;;8.50;;
43933;SDS011;59081;42.706;23.306;2022-10-22T14:00:35;17.88;;;8.27;;
43933;SDS011;59081;42.706;23.306;2022-10-22T14:03:02;14.27;;;9.65;;
43933;SDS011;59081;42.706;23.306;2022-10-22T14:05:28;15.57;;;9.27;;
43933;SDS011;59081;42.706;23.306;2022-10-22T14:07:57;13.48;;;8.45;;
43933;SDS011;59081;42.706;23.306;2022-10-22T14:10:23;14.23;;;8.30;;
43933;SDS011;59081;42.706;23.306;2022-10-22T14:12:49;11.75;;;8.48;;
43933;SDS011;59081;42.706;23.306;2022-10-22T14:15:17;15.07;;;8.25;;
43933;SDS011;59081;42.706;23.306;2022-10-22T14:17:45;14.15;;;8.48;;
43933;SDS011;59081;42.706;23.306;2022-10-22T14:20:20;19.90;;;8.98;;
43933;SDS011;59081;42.706;23.306;2022-10-22T14:22:48;16.17;;;8.18;;
43933;SDS011;59081;42.706;23.306;2022-10-22T14:25:15;15.32;;;9.27;;
43933;SDS011;59081;42.706;23.306;2022-10-22T14:27:42;17.08;;;9.30;;
43933;SDS011;59081;42.706;23.306;2022-10-22T14:30:12;13.35;;;7.82;;
43933;SDS011;59081;42.706;23.306;2022-10-22T14:32:39;15.10;;;8.55;;
43933;SDS011;59081;42.706;23.306;2022-10-22T14:35:05;14.80;;;8.55;;
43933;SDS011;59081;42.706;23.306;2022-10-22T14:37:30;18.52;;;8.77;;
43933;SDS011;59081;42.706;23.306;2022-10-22T14:39:56;22.15;;;9.32;;
43933;SDS011;59081;42.706;23.306;2022-10-22T14:42:25;15.13;;;9.00;;
43933;SDS011;59081;42.706;23.306;2022-10-22T14:44:52;14.30;;;9.32;;
43933;SDS011;59081;42.706;23.306;2022-10-22T14:47:18;16.90;;;9.23;;
43933;SDS011;59081;42.706;23.306;2022-10-22T14:49:43;20.38;;;10.35;;
43933;SDS011;59081;42.706;23.306;2022-10-22T14:52:09;23.25;;;9.88;;
43933;SDS011;59081;42.706;23.306;2022-10-22T14:54:34;21.77;;;9.82;;
43933;SDS011;59081;42.706;23.306;2022-10-22T14:57:01;16.85;;;9.30;;
43933;SDS011;59081;42.706;23.306;2022-10-22T14:59:27;20.63;;;10.13;;
43933;SDS011;59081;42.706;23.306;2022-10-22T15:01:53;15.07;;;10.00;;
43933;SDS011;59081;42.706;23.306;2022-10-22T15:04:18;15.85;;;10.70;;
43933;SDS011;59081;42.706;23.306;2022-10-22T15:06:44;15.70;;;9.55;;
43933;SDS011;59081;42.706;23.306;2022-10-22T15:09:09;18.27;;;8.57;;
43933;SDS011;59081;42.706;23.306;2022-10-22T15:11:35;26.67;;;17.15;;
43933;SDS011;59081;42.706;23.306;2022-10-22T15:14:00;26.23;;;12.68;;
43933;SDS011;59081;42.706;23.306;2022-10-22T15:16:26;23.38;;;10.40;;
43933;SDS011;59081;42.706;23.306;2022-10-22T15:18:51;19.48;;;10.00;;
43933;SDS011;59081;42.706;23.306;2022-10-22T15:21:18;23.27;;;12.20;;
43933;SDS011;59081;42.706;23.306;2022-10-22T15:23:45;24.90;;;12.18;;
43933;SDS011;59081;42.706;23.306;2022-10-22T15:26:11;22.67;;;11.38;;
43933;SDS011;59081;42.706;23.306;2022-10-22T15:28:37;20.08;;;11.60;;
43933;SDS011;59081;42.706;23.306;2022-10-22T15:31:04;28.15;;;14.23;;
43933;SDS011;59081;42.706;23.306;2022-10-22T15:33:31;23.20;;;12.50;;
43933;SDS011;59081;42.706;23.306;2022-10-22T15:35:57;29.15;;;18.35;;
43933;SDS011;59081;42.706;23.306;2022-10-22T15:38:26;37.28;;;23.02;;
43933;SDS011;59081;42.706;23.306;2022-10-22T15:40:59;43.95;;;22.88;;
43933;SDS011;59081;42.706;23.306;2022-10-22T15:43:26;35.70;;;19.05;;
43933;SDS011;59081;42.706;23.306;2022-10-22T15:46:02;29.88;;;17.65;;
43933;SDS011;59081;42.706;23.306;2022-10-22T15:48:34;30.40;;;16.80;;
43933;SDS011;59081;42.706;23.306;2022-10-22T15:51:00;30.92;;;16.25;;
43933;SDS011;59081;42.706;23.306;2022-10-22T15:53:25;39.30;;;16.65;;
43933;SDS011;59081;42.706;23.306;2022-10-22T15:55:50;58.33;;;35.90;;
43933;SDS011;59081;42.706;23.306;2022-10-22T15:58:16;73.82;;;49.22;;
43933;SDS011;59081;42.706;23.306;2022-10-22T16:00:41;72.22;;;43.67;;
43933;SDS011;59081;42.706;23.306;2022-10-22T16:03:07;27.92;;;15.98;;
43933;SDS011;59081;42.706;23.306;2022-10-22T16:05:32;39.92;;;16.67;;
43933;SDS011;59081;42.706;23.306;2022-10-22T16:07:58;37.00;;;21.13;;
43933;SDS011;59081;42.706;23.306;2022-10-22T16:10:23;37.00;;;17.95;;
43933;SDS011;59081;42.706;23.306;2022-10-22T16:12:49;36.33;;;15.90;;
43933;SDS011;59081;42.706;23.306;2022-10-22T16:15:15;33.33;;;19.67;;
43933;SDS011;59081;42.706;23.306;2022-10-22T16:17:41;35.70;;;17.40;;
43933;SDS011;59081;42.706;23.306;2022-10-22T16:20:07;28.45;;;15.35;;
43933;SDS011;59081;42.706;23.306;2022-10-22T16:22:33;32.65;;;15.07;;
43933;SDS011;59081;42.706;23.306;2022-10-22T16:24:58;32.40;;;16.45;;
43933;SDS011;59081;42.706;23.306;2022-10-22T16:27:24;52.72;;;31.15;;
43933;SDS011;59081;42.706;23.306;2022-10-22T16:29:49;40.85;;;19.10;;
43933;SDS011;59081;42.706;23.306;2022-10-22T16:32:15;35.88;;;17.83;;
43933;SDS011;59081;42.706;23.306;2022-10-22T16:34:41;32.53;;;17.92;;
43933;SDS011;59081;42.706;23.306;2022-10-22T16:37:07;34.85;;;18.25;;
43933;SDS011;59081;42.706;23.306;2022-10-22T16:39:34;33.90;;;18.15;;
43933;SDS011;59081;42.706;23.306;2022-10-22T16:41:59;41.58;;;20.27;;
43933;SDS011;59081;42.706;23.306;2022-10-22T16:44:25;49.30;;;30.38;;
43933;SDS011;59081;42.706;23.306;2022-10-22T16:46:50;35.45;;;20.40;;
43933;SDS011;59081;42.706;23.306;2022-10-22T16:49:16;64.63;;;39.63;;
43933;SDS011;59081;42.706;23.306;2022-10-22T16:51:41;39.85;;;19.73;;
43933;SDS011;59081;42.706;23.306;2022-10-22T16:54:07;31.13;;;17.52;;
43933;SDS011;59081;42.706;23.306;2022-10-22T16:56:35;31.50;;;15.00;;
43933;SDS011;59081;42.706;23.306;2022-10-22T16:59:01;37.38;;;17.88;;
43933;SDS011;59081;42.706;23.306;2022-10-22T17:01:27;47.60;;;29.05;;
43933;SDS011;59081;42.706;23.306;2022-10-22T17:03:58;36.38;;;21.90;;
43933;SDS011;59081;42.706;23.306;2022-10-22T17:06:24;53.28;;;24.95;;
43933;SDS011;59081;42.706;23.306;2022-10-22T17:08:50;42.03;;;21.42;;
43933;SDS011;59081;42.706;23.306;2022-10-22T17:11:16;34.92;;;18.33;;
43933;SDS011;59081;42.706;23.306;2022-10-22T17:13:44;31.35;;;16.98;;
43933;SDS011;59081;42.706;23.306;2022-10-22T17:16:13;30.75;;;17.35;;
43933;SDS011;59081;42.706;23.306;2022-10-22T17:18:40;41.30;;;21.67;;
43933;SDS011;59081;42.706;23.306;2022-10-22T17:21:09;43.22;;;22.45;;
43933;SDS011;59081;42.706;23.306;2022-10-22T17:23:35;34.90;;;18.05;;
43933;SDS011;59081;42.706;23.306;2022-10-22T17:26:01;36.72;;;19.08;;
43933;SDS011;59081;42.706;23.306;2022-10-22T17:28:30;33.30;;;20.30;;
43933;SDS011;59081;42.706;23.306;2022-10-22T17:33:44;49.50;;;29.00;;
43933;SDS011;59081;42.706;23.306;2022-10-22T17:36:10;46.95;;;26.92;;
43933;SDS011;59081;42.706;23.306;2022-10-22T17:38:38;39.72;;;20.02;;
43933;SDS011;59081;42.706;23.306;2022-10-22T17:41:05;36.10;;;21.80;;
43933;SDS011;59081;42.706;23.306;2022-10-22T17:43:32;40.60;;;21.50;;
43933;SDS011;59081;42.706;23.306;2022-10-22T17:46:05;42.13;;;22.15;;
43933;SDS011;59081;42.706;23.306;2022-10-22T17:48:33;55.47;;;31.77;;
43933;SDS011;59081;42.706;23.306;2022-10-22T17:50:58;93.32;;;57.97;;
43933;SDS011;59081;42.706;23.306;2022-10-22T17:53:24;55.13;;;34.65;;